sensor_id;sensor_type;location;lat;lon;timestamp;pressure;altitude;pressure_sealevel;temperature
29701;BMP280;57917;51.380;-0.176;2022-07-05T00:04:00;102025.22;;;16.86
29701;BMP280;57917;51.380;-0.176;2022-07-05T00:09:52;102027.03;;;16.62
29701;BMP280;57917;51.380;-0.176;2022-07-05T00:15:45;102029.78;;;16.57
29701;BMP280;57917;51.380;-0.176;2022-07-05T00:21:39;102031.38;;;16.58
29701;BMP280;57917;51.380;-0.176;2022-07-05T00:27:26;102024.09;;;16.40
29701;BMP280;57917;51.380;-0.176;2022-07-05T00:33:19;102030.34;;;16.30
29701;BMP280;57917;51.380;-0.176;2022-07-05T00:39:07;102035.06;;;16.38
29701;BMP280;57917;51.380;-0.176;2022-07-05T00:44:54;102043.97;;;15.95
29701;BMP280;57917;51.380;-0.176;2022-07-05T00:50:42;102048.16;;;15.77
29701;BMP280;57917;51.380;-0.176;2022-07-05T00:56:31;102042.47;;;15.84
29701;BMP280;57917;51.380;-0.176;2022-07-05T01:02:21;102042.22;;;15.80
29701;BMP280;57917;51.380;-0.176;2022-07-05T01:08:11;102039.03;;;15.78
29701;BMP280;57917;51.380;-0.176;2022-07-05T01:14:03;102035.22;;;15.89
29701;BMP280;57917;51.380;-0.176;2022-07-05T01:19:51;102035.50;;;15.83
29701;BMP280;57917;51.380;-0.176;2022-07-05T01:25:57;102036.72;;;15.72
29701;BMP280;57917;51.380;-0.176;2022-07-05T01:31:45;102029.50;;;15.67
29701;BMP280;57917;51.380;-0.176;2022-07-05T01:37:35;102025.25;;;15.66
29701;BMP280;57917;51.380;-0.176;2022-07-05T01:43:23;102035.44;;;15.59
29701;BMP280;57917;51.380;-0.176;2022-07-05T01:49:16;102041.31;;;15.56
29701;BMP280;57917;51.380;-0.176;2022-07-05T01:55:04;102049.19;;;15.33
29701;BMP280;57917;51.380;-0.176;2022-07-05T02:00:54;102045.00;;;15.22
29701;BMP280;57917;51.380;-0.176;2022-07-05T02:06:44;102036.19;;;15.21
29701;BMP280;57917;51.380;-0.176;2022-07-05T02:12:34;102037.28;;;15.10
29701;BMP280;57917;51.380;-0.176;2022-07-05T02:18:24;102036.72;;;15.13
29701;BMP280;57917;51.380;-0.176;2022-07-05T02:24:14;102040.75;;;15.06
29701;BMP280;57917;51.380;-0.176;2022-07-05T02:30:10;102043.22;;;14.92
29701;BMP280;57917;51.380;-0.176;2022-07-05T02:36:07;102047.47;;;14.93
29701;BMP280;57917;51.380;-0.176;2022-07-05T02:41:57;102040.31;;;14.89
29701;BMP280;57917;51.380;-0.176;2022-07-05T02:47:45;102042.44;;;14.82
29701;BMP280;57917;51.380;-0.176;2022-07-05T02:53:36;102040.59;;;14.77
29701;BMP280;57917;51.380;-0.176;2022-07-05T02:59:26;102048.59;;;14.77
29701;BMP280;57917;51.380;-0.176;2022-07-05T03:05:20;102057.13;;;14.64
29701;BMP280;57917;51.380;-0.176;2022-07-05T03:11:19;102043.81;;;14.59
29701;BMP280;57917;51.380;-0.176;2022-07-05T03:17:08;102048.63;;;14.57
29701;BMP280;57917;51.380;-0.176;2022-07-05T03:22:55;102050.75;;;14.60
29701;BMP280;57917;51.380;-0.176;2022-07-05T03:28:51;102064.63;;;14.42
29701;BMP280;57917;51.380;-0.176;2022-07-05T03:34:40;102060.06;;;14.37
29701;BMP280;57917;51.380;-0.176;2022-07-05T03:40:30;102067.81;;;14.19
29701;BMP280;57917;51.380;-0.176;2022-07-05T03:46:20;102065.69;;;14.31
29701;BMP280;57917;51.380;-0.176;2022-07-05T03:52:09;102063.56;;;14.18
29701;BMP280;57917;51.380;-0.176;2022-07-05T03:57:58;102058.22;;;14.13
29701;BMP280;57917;51.380;-0.176;2022-07-05T04:03:48;102064.84;;;14.20
29701;BMP280;57917;51.380;-0.176;2022-07-05T04:09:38;102078.47;;;14.24
29701;BMP280;57917;51.380;-0.176;2022-07-05T04:15:31;102081.09;;;14.14
29701;BMP280;57917;51.380;-0.176;2022-07-05T04:21:23;102076.81;;;14.08
29701;BMP280;57917;51.380;-0.176;2022-07-05T04:27:11;102083.78;;;13.99
29701;BMP280;57917;51.380;-0.176;2022-07-05T04:32:58;102075.25;;;13.87
29701;BMP280;57917;51.380;-0.176;2022-07-05T04:38:46;102085.88;;;13.82
29701;BMP280;57917;51.380;-0.176;2022-07-05T04:44:34;102090.13;;;14.93
29701;BMP280;57917;51.380;-0.176;2022-07-05T04:50:21;102084.22;;;16.71
29701;BMP280;57917;51.380;-0.176;2022-07-05T04:56:11;102077.34;;;17.86
29701;BMP280;57917;51.380;-0.176;2022-07-05T05:02:02;102080.84;;;18.86
29701;BMP280;57917;51.380;-0.176;2022-07-05T05:07:49;102084.53;;;19.75
29701;BMP280;57917;51.380;-0.176;2022-07-05T05:13:40;102090.63;;;20.19
29701;BMP280;57917;51.380;-0.176;2022-07-05T05:19:33;102083.25;;;20.64
29701;BMP280;57917;51.380;-0.176;2022-07-05T05:25:23;102088.72;;;21.06
29701;BMP280;57917;51.380;-0.176;2022-07-05T05:31:12;102088.66;;;20.89
29701;BMP280;57917;51.380;-0.176;2022-07-05T05:36:59;102099.03;;;21.47
29701;BMP280;57917;51.380;-0.176;2022-07-05T05:42:46;102103.22;;;21.99
29701;BMP280;57917;51.380;-0.176;2022-07-05T05:48:35;102110.03;;;22.05
29701;BMP280;57917;51.380;-0.176;2022-07-05T05:54:22;102120.56;;;21.21
29701;BMP280;57917;51.380;-0.176;2022-07-05T06:00:10;102120.47;;;19.43
29701;BMP280;57917;51.380;-0.176;2022-07-05T06:06:03;102139.97;;;18.54
29701;BMP280;57917;51.380;-0.176;2022-07-05T06:11:51;102145.72;;;18.15
29701;BMP280;57917;51.380;-0.176;2022-07-05T06:17:38;102142.66;;;17.71
29701;BMP280;57917;51.380;-0.176;2022-07-05T06:23:26;102142.38;;;17.54
29701;BMP280;57917;51.380;-0.176;2022-07-05T06:29:15;102163.44;;;17.37
29701;BMP280;57917;51.380;-0.176;2022-07-05T06:35:02;102166.88;;;17.19
29701;BMP280;57917;51.380;-0.176;2022-07-05T06:40:52;102163.13;;;17.44
29701;BMP280;57917;51.380;-0.176;2022-07-05T06:46:48;102158.91;;;17.38
29701;BMP280;57917;51.380;-0.176;2022-07-05T06:52:37;102169.00;;;17.41
29701;BMP280;57917;51.380;-0.176;2022-07-05T06:58:31;102183.03;;;17.33
29701;BMP280;57917;51.380;-0.176;2022-07-05T07:04:21;102181.78;;;17.49
29701;BMP280;57917;51.380;-0.176;2022-07-05T07:10:20;102188.50;;;17.46
29701;BMP280;57917;51.380;-0.176;2022-07-05T07:16:15;102183.41;;;17.68
29701;BMP280;57917;51.380;-0.176;2022-07-05T07:22:03;102185.53;;;17.48
29701;BMP280;57917;51.380;-0.176;2022-07-05T07:27:52;102193.19;;;17.36
29701;BMP280;57917;51.380;-0.176;2022-07-05T07:33:43;102179.94;;;17.68
29701;BMP280;57917;51.380;-0.176;2022-07-05T07:39:31;102187.91;;;17.73
29701;BMP280;57917;51.380;-0.176;2022-07-05T07:45:21;102182.19;;;17.98
29701;BMP280;57917;51.380;-0.176;2022-07-05T07:51:09;102189.59;;;18.06
29701;BMP280;57917;51.380;-0.176;2022-07-05T07:57:11;102190.66;;;18.69
29701;BMP280;57917;51.380;-0.176;2022-07-05T08:02:57;102175.06;;;18.98
29701;BMP280;57917;51.380;-0.176;2022-07-05T08:08:48;102175.97;;;19.34
29701;BMP280;57917;51.380;-0.176;2022-07-05T08:14:35;102167.88;;;19.97
29701;BMP280;57917;51.380;-0.176;2022-07-05T08:20:24;102168.38;;;20.29
29701;BMP280;57917;51.380;-0.176;2022-07-05T08:26:38;102163.31;;;21.06
29701;BMP280;57917;51.380;-0.176;2022-07-05T08:32:25;102176.19;;;22.11
29701;BMP280;57917;51.380;-0.176;2022-07-05T08:38:23;102176.34;;;21.97
29701;BMP280;57917;51.380;-0.176;2022-07-05T08:44:28;102164.38;;;22.33
29701;BMP280;57917;51.380;-0.176;2022-07-05T08:50:22;102159.72;;;21.78
29701;BMP280;57917;51.380;-0.176;2022-07-05T08:56:13;102160.38;;;21.58
29701;BMP280;57917;51.380;-0.176;2022-07-05T09:02:12;102170.88;;;22.40
29701;BMP280;57917;51.380;-0.176;2022-07-05T09:08:04;102160.63;;;23.86
29701;BMP280;57917;51.380;-0.176;2022-07-05T09:13:51;102164.28;;;23.49
29701;BMP280;57917;51.380;-0.176;2022-07-05T09:20:14;102165.56;;;23.84
29701;BMP280;57917;51.380;-0.176;2022-07-05T09:26:04;102162.94;;;23.55
29701;BMP280;57917;51.380;-0.176;2022-07-05T09:31:53;102167.16;;;23.32
29701;BMP280;57917;51.380;-0.176;2022-07-05T09:37:48;102170.09;;;22.98
29701;BMP280;57917;51.380;-0.176;2022-07-05T09:43:37;102180.78;;;23.15
29701;BMP280;57917;51.380;-0.176;2022-07-05T09:49:26;102189.06;;;23.51
29701;BMP280;57917;51.380;-0.176;2022-07-05T09:55:35;102191.38;;;24.62
29701;BMP280;57917;51.380;-0.176;2022-07-05T10:01:28;102179.06;;;24.40
29701;BMP280;57917;51.380;-0.176;2022-07-05T10:07:52;102189.47;;;23.61
29701;BMP280;57917;51.380;-0.176;2022-07-05T10:13:44;102183.69;;;23.83
29701;BMP280;57917;51.380;-0.176;2022-07-05T10:26:50;102193.81;;;22.92
29701;BMP280;57917;51.380;-0.176;2022-07-05T10:49:10;102208.53;;;22.20
29701;BMP280;57917;51.380;-0.176;2022-07-05T10:55:35;102202.69;;;21.83
29701;BMP280;57917;51.380;-0.176;2022-07-05T11:01:35;102212.69;;;21.74
29701;BMP280;57917;51.380;-0.176;2022-07-05T11:08:02;102201.75;;;22.14
29701;BMP280;57917;51.380;-0.176;2022-07-05T11:14:37;102201.53;;;23.64
29701;BMP280;57917;51.380;-0.176;2022-07-05T11:20:32;102199.81;;;24.24
29701;BMP280;57917;51.380;-0.176;2022-07-05T11:26:23;102185.09;;;25.64
29701;BMP280;57917;51.380;-0.176;2022-07-05T11:32:17;102187.41;;;25.93
29701;BMP280;57917;51.380;-0.176;2022-07-05T11:38:58;102197.09;;;26.72
29701;BMP280;57917;51.380;-0.176;2022-07-05T11:44:59;102191.88;;;26.82
29701;BMP280;57917;51.380;-0.176;2022-07-05T11:51:25;102191.50;;;26.49
29701;BMP280;57917;51.380;-0.176;2022-07-05T11:57:21;102178.13;;;26.41
29701;BMP280;57917;51.380;-0.176;2022-07-05T12:03:55;102179.88;;;25.44
29701;BMP280;57917;51.380;-0.176;2022-07-05T12:09:54;102183.50;;;24.69
29701;BMP280;57917;51.380;-0.176;2022-07-05T12:16:07;102176.75;;;24.90
29701;BMP280;57917;51.380;-0.176;2022-07-05T12:21:55;102172.94;;;25.74
29701;BMP280;57917;51.380;-0.176;2022-07-05T12:27:48;102169.69;;;24.14
29701;BMP280;57917;51.380;-0.176;2022-07-05T12:33:37;102175.44;;;24.12
29701;BMP280;57917;51.380;-0.176;2022-07-05T12:39:25;102178.53;;;23.58
29701;BMP280;57917;51.380;-0.176;2022-07-05T12:45:16;102174.38;;;23.93
29701;BMP280;57917;51.380;-0.176;2022-07-05T12:51:08;102180.00;;;23.88
29701;BMP280;57917;51.380;-0.176;2022-07-05T12:57:14;102180.22;;;23.62
29701;BMP280;57917;51.380;-0.176;2022-07-05T13:09:45;102188.94;;;23.27
29701;BMP280;57917;51.380;-0.176;2022-07-05T13:15:36;102185.09;;;23.57
29701;BMP280;57917;51.380;-0.176;2022-07-05T13:21:25;102178.34;;;23.22
29701;BMP280;57917;51.380;-0.176;2022-07-05T13:27:14;102169.00;;;22.70
29701;BMP280;57917;51.380;-0.176;2022-07-05T13:33:04;102177.63;;;23.13
29701;BMP280;57917;51.380;-0.176;2022-07-05T13:38:50;102172.50;;;23.11
29701;BMP280;57917;51.380;-0.176;2022-07-05T13:44:38;102176.81;;;23.33
29701;BMP280;57917;51.380;-0.176;2022-07-05T13:50:26;102179.34;;;23.38
29701;BMP280;57917;51.380;-0.176;2022-07-05T13:56:19;102185.28;;;23.11
29701;BMP280;57917;51.380;-0.176;2022-07-05T14:02:10;102182.63;;;23.64
29701;BMP280;57917;51.380;-0.176;2022-07-05T14:08:08;102174.28;;;23.07
29701;BMP280;57917;51.380;-0.176;2022-07-05T14:13:59;102186.44;;;22.64
29701;BMP280;57917;51.380;-0.176;2022-07-05T14:19:48;102192.50;;;22.98
29701;BMP280;57917;51.380;-0.176;2022-07-05T14:25:38;102190.50;;;23.07
29701;BMP280;57917;51.380;-0.176;2022-07-05T14:31:29;102194.00;;;22.79
29701;BMP280;57917;51.380;-0.176;2022-07-05T14:37:20;102189.81;;;22.61
29701;BMP280;57917;51.380;-0.176;2022-07-05T14:43:10;102186.81;;;22.91
29701;BMP280;57917;51.380;-0.176;2022-07-05T14:48:57;102202.88;;;22.88
29701;BMP280;57917;51.380;-0.176;2022-07-05T14:54:44;102199.69;;;23.15
29701;BMP280;57917;51.380;-0.176;2022-07-05T15:00:31;102187.94;;;22.61
29701;BMP280;57917;51.380;-0.176;2022-07-05T15:06:21;102189.78;;;22.69
29701;BMP280;57917;51.380;-0.176;2022-07-05T15:12:45;102196.81;;;23.11
29701;BMP280;57917;51.380;-0.176;2022-07-05T15:18:34;102196.53;;;23.13
29701;BMP280;57917;51.380;-0.176;2022-07-05T15:24:21;102182.34;;;22.95
29701;BMP280;57917;51.380;-0.176;2022-07-05T15:30:10;102185.69;;;23.21
29701;BMP280;57917;51.380;-0.176;2022-07-05T15:36:06;102185.97;;;22.99
29701;BMP280;57917;51.380;-0.176;2022-07-05T15:41:54;102193.31;;;22.70
29701;BMP280;57917;51.380;-0.176;2022-07-05T15:47:43;102202.09;;;22.50
29701;BMP280;57917;51.380;-0.176;2022-07-05T15:53:33;102186.84;;;22.83
29701;BMP280;57917;51.380;-0.176;2022-07-05T15:59:21;102215.09;;;22.56
29701;BMP280;57917;51.380;-0.176;2022-07-05T16:05:08;102193.47;;;22.56
29701;BMP280;57917;51.380;-0.176;2022-07-05T16:10:55;102205.41;;;22.55
29701;BMP280;57917;51.380;-0.176;2022-07-05T16:16:43;102204.31;;;22.85
29701;BMP280;57917;51.380;-0.176;2022-07-05T16:22:33;102196.59;;;22.67
29701;BMP280;57917;51.380;-0.176;2022-07-05T16:28:26;102199.63;;;23.03
29701;BMP280;57917;51.380;-0.176;2022-07-05T16:34:40;102211.09;;;23.00
29701;BMP280;57917;51.380;-0.176;2022-07-05T16:40:46;102202.22;;;22.91
29701;BMP280;57917;51.380;-0.176;2022-07-05T16:46:39;102211.31;;;22.49
29701;BMP280;57917;51.380;-0.176;2022-07-05T16:53:55;102197.88;;;22.23
29701;BMP280;57917;51.380;-0.176;2022-07-05T17:00:18;102216.47;;;22.16
29701;BMP280;57917;51.380;-0.176;2022-07-05T17:06:18;102220.41;;;22.18
29701;BMP280;57917;51.380;-0.176;2022-07-05T17:12:13;102214.72;;;22.20
29701;BMP280;57917;51.380;-0.176;2022-07-05T17:18:01;102218.53;;;22.10
29701;BMP280;57917;51.380;-0.176;2022-07-05T17:30:06;102209.97;;;22.17
29701;BMP280;57917;51.380;-0.176;2022-07-05T17:35:55;102219.50;;;21.89
29701;BMP280;57917;51.380;-0.176;2022-07-05T17:41:45;102230.94;;;22.03
29701;BMP280;57917;51.380;-0.176;2022-07-05T17:47:35;102215.72;;;21.73
29701;BMP280;57917;51.380;-0.176;2022-07-05T17:53:22;102226.03;;;21.71
29701;BMP280;57917;51.380;-0.176;2022-07-05T17:59:10;102224.75;;;22.02
29701;BMP280;57917;51.380;-0.176;2022-07-05T18:05:04;102233.47;;;21.99
29701;BMP280;57917;51.380;-0.176;2022-07-05T18:10:53;102232.03;;;21.76
29701;BMP280;57917;51.380;-0.176;2022-07-05T18:16:46;102225.22;;;21.87
29701;BMP280;57917;51.380;-0.176;2022-07-05T18:22:33;102223.97;;;21.93
29701;BMP280;57917;51.380;-0.176;2022-07-05T18:28:21;102226.38;;;21.86
29701;BMP280;57917;51.380;-0.176;2022-07-05T18:34:11;102219.97;;;21.99
29701;BMP280;57917;51.380;-0.176;2022-07-05T18:40:06;102220.63;;;21.79
29701;BMP280;57917;51.380;-0.176;2022-07-05T18:45:58;102207.06;;;22.22
29701;BMP280;57917;51.380;-0.176;2022-07-05T18:51:51;102208.91;;;21.92
29701;BMP280;57917;51.380;-0.176;2022-07-05T18:57:45;102218.06;;;22.00
29701;BMP280;57917;51.380;-0.176;2022-07-05T19:03:40;102205.38;;;21.83
29701;BMP280;57917;51.380;-0.176;2022-07-05T19:09:27;102211.72;;;21.96
29701;BMP280;57917;51.380;-0.176;2022-07-05T19:15:43;102207.94;;;21.54
29701;BMP280;57917;51.380;-0.176;2022-07-05T19:22:17;102227.75;;;21.50
29701;BMP280;57917;51.380;-0.176;2022-07-05T19:28:56;102231.53;;;21.32
29701;BMP280;57917;51.380;-0.176;2022-07-05T19:34:48;102243.88;;;21.41
29701;BMP280;57917;51.380;-0.176;2022-07-05T19:40:41;102239.25;;;21.16
29701;BMP280;57917;51.380;-0.176;2022-07-05T19:46:34;102234.03;;;21.20
29701;BMP280;57917;51.380;-0.176;2022-07-05T19:52:22;102237.88;;;20.88
29701;BMP280;57917;51.380;-0.176;2022-07-05T19:58:17;102240.03;;;20.78
29701;BMP280;57917;51.380;-0.176;2022-07-05T20:04:57;102256.84;;;20.83
29701;BMP280;57917;51.380;-0.176;2022-07-05T20:11:44;102269.00;;;20.72
29701;BMP280;57917;51.380;-0.176;2022-07-05T20:18:18;102275.88;;;20.65
29701;BMP280;57917;51.380;-0.176;2022-07-05T20:24:35;102287.69;;;20.47
29701;BMP280;57917;51.380;-0.176;2022-07-05T20:30:33;102293.97;;;20.42
29701;BMP280;57917;51.380;-0.176;2022-07-05T20:36:44;102303.91;;;20.20
29701;BMP280;57917;51.380;-0.176;2022-07-05T20:43:03;102303.91;;;20.06
29701;BMP280;57917;51.380;-0.176;2022-07-05T20:48:57;102314.31;;;19.99
29701;BMP280;57917;51.380;-0.176;2022-07-05T20:54:50;102313.84;;;19.97
29701;BMP280;57917;51.380;-0.176;2022-07-05T21:02:00;102325.00;;;19.64
29701;BMP280;57917;51.380;-0.176;2022-07-05T21:16:05;102343.63;;;19.60
29701;BMP280;57917;51.380;-0.176;2022-07-05T21:29:49;102370.56;;;19.96
29701;BMP280;57917;51.380;-0.176;2022-07-05T21:36:05;102368.91;;;19.86
29701;BMP280;57917;51.380;-0.176;2022-07-05T21:41:54;102370.59;;;19.82
29701;BMP280;57917;51.380;-0.176;2022-07-05T21:47:49;102379.16;;;19.84
29701;BMP280;57917;51.380;-0.176;2022-07-05T21:53:49;102380.88;;;19.80
29701;BMP280;57917;51.380;-0.176;2022-07-05T21:59:37;102392.22;;;19.18
29701;BMP280;57917;51.380;-0.176;2022-07-05T22:05:58;102395.56;;;19.10
29701;BMP280;57917;51.380;-0.176;2022-07-05T22:11:48;102405.19;;;18.79
29701;BMP280;57917;51.380;-0.176;2022-07-05T22:17:45;102398.06;;;18.88
29701;BMP280;57917;51.380;-0.176;2022-07-05T22:23:33;102409.91;;;18.68
29701;BMP280;57917;51.380;-0.176;2022-07-05T22:29:39;102391.13;;;18.26
29701;BMP280;57917;51.380;-0.176;2022-07-05T22:35:30;102395.03;;;18.15
29701;BMP280;57917;51.380;-0.176;2022-07-05T22:41:54;102394.38;;;18.47
29701;BMP280;57917;51.380;-0.176;2022-07-05T22:48:37;102400.38;;;18.39
29701;BMP280;57917;51.380;-0.176;2022-07-05T22:54:52;102397.06;;;18.23
29701;BMP280;57917;51.380;-0.176;2022-07-05T23:00:59;102408.84;;;18.04
29701;BMP280;57917;51.380;-0.176;2022-07-05T23:07:37;102413.38;;;17.80
29701;BMP280;57917;51.380;-0.176;2022-07-05T23:13:35;102424.47;;;17.97
29701;BMP280;57917;51.380;-0.176;2022-07-05T23:19:39;102417.47;;;17.77
29701;BMP280;57917;51.380;-0.176;2022-07-05T23:25:27;102419.06;;;17.50
29701;BMP280;57917;51.380;-0.176;2022-07-05T23:31:33;102428.78;;;17.69
29701;BMP280;57917;51.380;-0.176;2022-07-05T23:37:21;102427.50;;;17.62
29701;BMP280;57917;51.380;-0.176;2022-07-05T23:43:09;102435.19;;;17.73
29701;BMP280;57917;51.380;-0.176;2022-07-05T23:48:58;102444.22;;;17.49
29701;BMP280;57917;51.380;-0.176;2022-07-05T23:54:46;102436.44;;;17.14
